Time;durP1;ratioP1;P1;durP2;ratioP2;P2;SDS_P1;SDS_P2;PMS_P1;PMS_P2;Temp;Humidity;BMP_temperature;BMP_pressure;BME280_temperature;BME280_humidity;BME280_pressure;Samples;Min_cycle;Max_cycle;Signal;HPM_P1;HPM_P2
2021/04/16 00:02:08;;;;;;;1.73;1.63;;;3.30;56.60;;;;;;5050548;28;20086;-69
2021/04/16 00:04:33;;;;;;;2.10;1.90;;;3.20;56.90;;;;;;5049910;28;20051;-68
2021/04/16 00:06:59;;;;;;;4.95;1.60;;;3.20;57.20;;;;;;5050495;28;20036;-68
2021/04/16 00:09:25;;;;;;;2.67;2.00;;;3.20;56.70;;;;;;5050062;28;20021;-70
2021/04/16 00:11:52;;;;;;;2.17;1.90;;;3.10;56.80;;;;;;5050616;28;20021;-69
2021/04/16 00:14:18;;;;;;;2.10;1.85;;;3.10;56.90;;;;;;5050859;28;20037;-69
2021/04/16 00:16:44;;;;;;;1.92;1.80;;;3.10;57.00;;;;;;5040805;28;20185;-69
2021/04/16 00:19:10;;;;;;;2.45;1.65;;;3.10;57.00;;;;;;5050612;28;20451;-69
2021/04/16 00:21:36;;;;;;;4.00;1.95;;;3.10;57.10;;;;;;5049125;28;20419;-69
2021/04/16 00:24:02;;;;;;;4.05;1.73;;;3.00;57.10;;;;;;5047746;28;20044;-70
2021/04/16 00:26:28;;;;;;;2.83;1.90;;;3.00;57.10;;;;;;5050159;28;20036;-68
2021/04/16 00:28:53;;;;;;;1.95;1.77;;;3.00;57.20;;;;;;5050368;28;20021;-69
2021/04/16 00:31:24;;;;;;;2.70;1.85;;;2.90;57.30;;;;;;5048829;28;20029;-68
2021/04/16 00:33:50;;;;;;;2.45;1.95;;;2.90;57.40;;;;;;5041457;28;20465;-69
2021/04/16 00:36:17;;;;;;;2.92;1.98;;;2.90;57.40;;;;;;5042977;28;20029;-69
2021/04/16 00:38:47;;;;;;;1.83;1.70;;;2.90;57.50;;;;;;5044409;28;20116;-70
2021/04/16 00:41:17;;;;;;;2.47;1.70;;;2.80;57.50;;;;;;5036102;28;20495;-69
2021/04/16 00:43:44;;;;;;;2.80;1.83;;;2.80;57.60;;;;;;5049841;28;20025;-69
2021/04/16 00:46:13;;;;;;;2.08;1.83;;;2.70;57.50;;;;;;5048427;28;20053;-69
2021/04/16 00:48:58;;;;;;;2.25;1.88;;;2.70;57.50;;;;;;5049684;28;20055;-69
2021/04/16 00:51:32;;;;;;;2.38;2.17;;;2.70;57.50;;;;;;5050309;28;20013;-69
2021/04/16 00:53:59;;;;;;;3.05;2.03;;;2.70;57.60;;;;;;5037656;28;20462;-69
2021/04/16 00:56:26;;;;;;;2.05;1.83;;;2.70;57.70;;;;;;5032940;28;20477;-69
2021/04/16 00:58:52;;;;;;;2.00;1.90;;;2.70;57.80;;;;;;5047310;28;20035;-69
2021/04/16 01:01:18;;;;;;;4.20;1.65;;;2.70;57.80;;;;;;5049211;28;20115;-69
2021/04/16 01:03:44;;;;;;;2.08;1.77;;;2.70;57.90;;;;;;5049359;28;20033;-69
2021/04/16 01:06:10;;;;;;;3.17;1.85;;;2.60;57.80;;;;;;5048826;28;20070;-70
2021/04/16 01:08:37;;;;;;;2.35;1.88;;;2.50;57.80;;;;;;5049852;28;20043;-70
2021/04/16 01:11:05;;;;;;;2.65;1.92;;;2.50;57.90;;;;;;5049026;28;20037;-70
2021/04/16 01:13:32;;;;;;;2.20;2.00;;;2.40;58.10;;;;;;5050862;28;20439;-70
2021/04/16 01:16:01;;;;;;;1.95;1.85;;;2.40;58.10;;;;;;5049140;28;20128;-70
2021/04/16 01:18:38;;;;;;;2.10;1.90;;;2.30;58.20;;;;;;5049491;28;20067;-69
2021/04/16 01:21:08;;;;;;;3.50;1.90;;;2.30;58.20;;;;;;5048660;28;20333;-69
2021/04/16 01:23:48;;;;;;;3.10;2.05;;;2.30;58.30;;;;;;5038739;28;20030;-70
2021/04/16 01:26:17;;;;;;;2.60;1.92;;;2.30;58.50;;;;;;5036103;28;20162;-69
2021/04/16 01:28:43;;;;;;;2.85;2.05;;;2.30;58.50;;;;;;5049288;28;20025;-71
2021/04/16 01:31:16;;;;;;;4.03;2.10;;;2.30;58.50;;;;;;5049305;28;20029;-69
2021/04/16 01:33:45;;;;;;;3.20;1.83;;;2.30;58.50;;;;;;5049140;28;20122;-69
2021/04/16 01:36:13;;;;;;;2.97;2.08;;;2.30;58.40;;;;;;5048502;28;20024;-70
2021/04/16 01:38:41;;;;;;;3.47;2.42;;;2.30;58.60;;;;;;5049319;28;20039;-69
2021/04/16 01:41:08;;;;;;;2.50;1.85;;;2.30;58.50;;;;;;5043858;28;20029;-69
2021/04/16 01:43:43;;;;;;;2.85;2.10;;;2.30;58.40;;;;;;5048552;28;20485;-69
2021/04/16 01:46:19;;;;;;;2.15;1.95;;;2.30;58.50;;;;;;5035210;28;20081;-69
2021/04/16 01:48:49;;;;;;;2.20;1.90;;;2.20;58.50;;;;;;5049085;28;20025;-69
2021/04/16 01:51:37;;;;;;;2.65;1.88;;;2.00;58.40;;;;;;5046400;28;20021;-70
2021/04/16 01:54:12;;;;;;;1.92;1.80;;;2.00;59.00;;;;;;5044606;28;20128;-72
2021/04/16 01:56:40;;;;;;;2.75;2.25;;;2.00;59.20;;;;;;5048848;28;20024;-69
2021/04/16 01:59:08;;;;;;;3.85;2.70;;;2.00;59.00;;;;;;5049204;28;20171;-69
2021/04/16 02:01:34;;;;;;;3.10;2.80;;;2.00;59.00;;;;;;5048860;28;20032;-69
2021/04/16 02:04:00;;;;;;;4.07;2.63;;;2.00;59.00;;;;;;5047762;28;20061;-69
2021/04/16 02:06:26;;;;;;;4.07;2.20;;;2.00;59.10;;;;;;5048636;28;20113;-69
2021/04/16 02:08:54;;;;;;;4.45;2.42;;;2.10;59.10;;;;;;5052466;28;20563;-69
2021/04/16 02:11:19;;;;;;;2.80;2.47;;;2.10;59.10;;;;;;5052466;28;20091;-70
2021/04/16 02:13:45;;;;;;;2.42;2.22;;;2.00;59.00;;;;;;5052879;28;20033;-70
2021/04/16 02:16:11;;;;;;;3.22;2.50;;;2.00;59.00;;;;;;5051760;28;20036;-71
2021/04/16 02:18:36;;;;;;;3.42;2.40;;;2.00;59.10;;;;;;5052768;28;20124;-69
2021/04/16 02:21:02;;;;;;;2.67;2.47;;;2.00;59.00;;;;;;5052140;28;20028;-70
2021/04/16 02:23:27;;;;;;;2.50;2.30;;;1.90;59.10;;;;;;5048285;28;20037;-69
2021/04/16 02:25:53;;;;;;;3.97;2.08;;;1.90;59.20;;;;;;5051368;28;20523;-70
2021/04/16 02:28:19;;;;;;;5.30;2.88;;;1.90;59.30;;;;;;5052216;28;20039;-69
2021/04/16 02:30:46;;;;;;;3.00;2.45;;;1.90;59.30;;;;;;5053820;28;20066;-69
2021/04/16 02:33:12;;;;;;;3.67;2.22;;;1.90;59.40;;;;;;5052187;28;20029;-70
2021/04/16 02:35:38;;;;;;;4.00;2.90;;;1.80;59.40;;;;;;5051181;28;20037;-70
2021/04/16 02:38:04;;;;;;;4.22;2.13;;;1.80;59.50;;;;;;5052286;28;20094;-70
2021/04/16 02:40:30;;;;;;;2.50;2.30;;;1.80;59.50;;;;;;5048830;28;20029;-70
2021/04/16 02:42:55;;;;;;;3.22;2.60;;;1.80;59.60;;;;;;5051612;28;20024;-69
2021/04/16 02:45:25;;;;;;;3.22;2.78;;;1.80;59.60;;;;;;5051238;28;20118;-70
2021/04/16 02:47:51;;;;;;;3.25;2.38;;;1.80;59.70;;;;;;5052131;28;20028;-69
2021/04/16 02:50:21;;;;;;;3.53;2.65;;;1.80;59.70;;;;;;5035071;28;20048;-70
2021/04/16 02:52:46;;;;;;;3.70;2.28;;;1.80;59.80;;;;;;5041081;28;20017;-70
2021/04/16 02:55:12;;;;;;;4.55;2.80;;;1.80;59.70;;;;;;5050660;28;20131;-70
2021/04/16 02:57:38;;;;;;;3.67;2.22;;;1.80;59.80;;;;;;5051402;28;20028;-70
2021/04/16 03:00:07;;;;;;;2.97;2.63;;;1.80;59.80;;;;;;5051231;28;20447;-72
2021/04/16 03:02:33;;;;;;;6.68;2.83;;;1.80;59.80;;;;;;5032154;28;20032;-69
2021/04/16 03:04:58;;;;;;;3.40;2.17;;;1.80;59.80;;;;;;5048785;28;20033;-70
2021/04/16 03:07:24;;;;;;;2.92;2.25;;;1.70;59.80;;;;;;5050822;28;20485;-71
2021/04/16 03:09:50;;;;;;;3.58;2.53;;;1.70;59.80;;;;;;5051372;28;20025;-71
2021/04/16 03:12:16;;;;;;;3.85;2.70;;;1.70;60.00;;;;;;5051418;28;20036;-69
2021/04/16 03:14:41;;;;;;;5.05;2.60;;;1.70;60.00;;;;;;5050537;28;20067;-70
2021/04/16 03:17:07;;;;;;;3.95;2.97;;;1.70;60.10;;;;;;5051696;28;20389;-70
2021/04/16 03:19:33;;;;;;;3.03;2.63;;;1.60;60.00;;;;;;5051168;28;20028;-69
2021/04/16 03:21:58;;;;;;;3.83;2.40;;;1.60;60.10;;;;;;5051907;28;20501;-69
2021/04/16 03:24:24;;;;;;;3.88;3.00;;;1.60;60.10;;;;;;5041391;28;20036;-69
2021/04/16 03:26:50;;;;;;;4.13;2.42;;;1.60;60.20;;;;;;5051464;28;20044;-69
2021/04/16 03:29:15;;;;;;;3.22;2.72;;;1.60;60.30;;;;;;5050706;28;20398;-70
2021/04/16 03:31:41;;;;;;;3.55;2.42;;;1.60;60.40;;;;;;5051281;28;20017;-70
2021/04/16 03:34:08;;;;;;;3.08;2.78;;;1.60;60.50;;;;;;5050187;28;20021;-70
2021/04/16 03:36:34;;;;;;;3.10;2.63;;;1.60;60.50;;;;;;5050860;28;20036;-70
2021/04/16 03:39:00;;;;;;;3.47;2.65;;;1.60;60.50;;;;;;5049218;28;20033;-69
2021/04/16 03:41:25;;;;;;;3.17;2.63;;;1.60;60.50;;;;;;5041334;28;20025;-70
2021/04/16 03:43:51;;;;;;;5.15;2.50;;;1.60;60.60;;;;;;5050121;28;20029;-71
2021/04/16 03:46:17;;;;;;;3.40;2.83;;;1.60;60.60;;;;;;5051898;28;20029;-69
2021/04/16 03:48:44;;;;;;;4.05;2.88;;;1.60;60.60;;;;;;5050757;28;20504;-69
2021/04/16 03:51:10;;;;;;;6.05;3.45;;;1.60;60.70;;;;;;5050302;28;20143;-72
2021/04/16 03:53:41;;;;;;;5.35;3.13;;;1.60;60.70;;;;;;5050225;28;20070;-70
2021/04/16 03:56:09;;;;;;;5.63;3.08;;;1.60;60.80;;;;;;5049705;28;20486;-70
2021/04/16 03:58:35;;;;;;;7.30;3.28;;;1.60;60.70;;;;;;5050638;28;20032;-70
2021/04/16 04:01:03;;;;;;;3.90;3.13;;;1.60;60.80;;;;;;5050610;28;20059;-69
2021/04/16 04:03:29;;;;;;;4.38;3.03;;;1.60;60.90;;;;;;5050639;28;20013;-69
2021/04/16 04:05:54;;;;;;;5.50;3.33;;;1.60;60.90;;;;;;5049643;28;20025;-69
2021/04/16 04:08:20;;;;;;;4.95;3.38;;;1.60;60.90;;;;;;5050021;28;20025;-70
2021/04/16 04:10:46;;;;;;;4.15;3.17;;;1.60;61.00;;;;;;5050514;28;20021;-69
2021/04/16 04:13:13;;;;;;;4.57;3.15;;;1.70;61.10;;;;;;5050507;28;20630;-70
2021/04/16 04:15:39;;;;;;;3.85;3.45;;;1.70;61.20;;;;;;5050198;28;20041;-70
2021/04/16 04:18:05;;;;;;;6.68;3.80;;;1.70;61.20;;;;;;5050774;28;20061;-70
2021/04/16 04:20:33;;;;;;;5.05;3.50;;;1.80;61.30;;;;;;5050647;28;20056;-71
2021/04/16 04:23:00;;;;;;;4.47;3.55;;;1.80;61.30;;;;;;5048924;28;20037;-71
2021/04/16 04:25:28;;;;;;;6.32;3.97;;;1.90;61.30;;;;;;5041515;28;20036;-69
2021/04/16 04:27:56;;;;;;;3.83;3.35;;;1.90;61.40;;;;;;5050342;28;20114;-70
2021/04/16 04:30:26;;;;;;;5.75;3.80;;;1.90;61.40;;;;;;5050337;28;20021;-70
2021/04/16 04:32:52;;;;;;;8.15;4.25;;;2.00;61.60;;;;;;5050831;28;20389;-71
2021/04/16 04:35:18;;;;;;;5.32;3.83;;;2.00;61.60;;;;;;5065828;28;20580;-70
2021/04/16 04:37:43;;;;;;;5.03;3.75;;;2.10;61.80;;;;;;5050060;28;20041;-69
2021/04/16 04:40:10;;;;;;;14.95;8.40;;;2.10;61.90;;;;;;5048495;28;20021;-71
2021/04/16 04:42:36;;;;;;;10.50;7.22;;;2.20;61.90;;;;;;5043780;28;20025;-72
2021/04/16 04:45:03;;;;;;;8.50;6.47;;;2.30;61.90;;;;;;5049729;28;20039;-72
2021/04/16 04:47:29;;;;;;;6.72;4.93;;;2.30;62.00;;;;;;5050082;28;20029;-70
2021/04/16 04:49:55;;;;;;;6.82;5.03;;;2.30;62.00;;;;;;5048461;28;20117;-70
2021/04/16 04:52:27;;;;;;;8.20;4.38;;;2.40;62.10;;;;;;5048823;28;20092;-72
2021/04/16 04:54:55;;;;;;;5.13;4.57;;;2.40;62.20;;;;;;5043905;28;20040;-71
2021/04/16 04:57:23;;;;;;;6.20;4.32;;;2.40;62.20;;;;;;5046729;28;20030;-71
2021/04/16 04:59:48;;;;;;;6.20;4.65;;;2.50;62.20;;;;;;5041912;28;20034;-72
2021/04/16 05:02:17;;;;;;;7.68;4.30;;;2.50;62.20;;;;;;5039966;28;20029;-71
2021/04/16 05:04:42;;;;;;;8.27;4.30;;;2.50;62.30;;;;;;5049071;28;20091;-71
2021/04/16 05:07:08;;;;;;;6.03;4.15;;;2.50;62.20;;;;;;5049397;28;20426;-71
2021/04/16 05:09:34;;;;;;;7.80;4.45;;;2.50;62.20;;;;;;5049157;28;20040;-71
2021/04/16 05:12:00;;;;;;;6.45;4.05;;;2.40;62.20;;;;;;5049620;28;20025;-69
2021/04/16 05:14:26;;;;;;;7.95;4.38;;;2.40;62.30;;;;;;5048102;28;20079;-72
2021/04/16 05:16:52;;;;;;;7.70;4.15;;;2.40;62.30;;;;;;5043924;28;20120;-69
2021/04/16 05:19:18;;;;;;;6.25;4.30;;;2.40;62.40;;;;;;5062221;28;20121;-72
2021/04/16 05:21:44;;;;;;;4.93;3.90;;;2.50;63.10;;;;;;5043599;28;20053;-71
2021/04/16 05:24:11;;;;;;;10.27;4.78;;;2.50;62.60;;;;;;5043871;28;20040;-70
2021/04/16 05:26:38;;;;;;;6.45;4.63;;;2.50;62.70;;;;;;5048555;28;20021;-71
2021/04/16 05:29:05;;;;;;;6.47;4.95;;;2.50;62.80;;;;;;5048316;28;20616;-71
2021/04/16 05:31:31;;;;;;;6.15;4.90;;;2.60;62.90;;;;;;5048335;28;20020;-71
2021/04/16 05:33:57;;;;;;;6.10;4.50;;;2.60;63.00;;;;;;5048222;28;20021;-71
2021/04/16 05:36:23;;;;;;;7.07;4.82;;;2.60;63.10;;;;;;5046050;28;20394;-71
2021/04/16 05:38:49;;;;;;;7.03;4.70;;;2.70;63.30;;;;;;5043158;28;20033;-70
2021/04/16 05:41:15;;;;;;;8.20;5.07;;;2.70;63.30;;;;;;5058024;28;20033;-70
2021/04/16 05:43:41;;;;;;;5.78;4.75;;;2.80;63.50;;;;;;5051704;28;20051;-71
2021/04/16 05:46:06;;;;;;;6.03;4.85;;;2.80;63.60;;;;;;5052114;28;20459;-70
2021/04/16 05:48:32;;;;;;;7.80;4.95;;;2.90;63.60;;;;;;5053700;28;20052;-68
2021/04/16 05:50:58;;;;;;;6.78;5.00;;;2.90;63.60;;;;;;5048845;28;20079;-67
2021/04/16 05:53:24;;;;;;;7.70;5.05;;;3.00;63.70;;;;;;5049052;28;20530;-69
2021/04/16 05:55:50;;;;;;;7.22;5.05;;;3.10;63.70;;;;;;5044518;28;20481;-69
2021/04/16 05:58:16;;;;;;;7.25;4.85;;;3.10;63.70;;;;;;5044253;28;20024;-69
2021/04/16 06:00:42;;;;;;;6.53;4.90;;;3.10;63.70;;;;;;5053258;28;20029;-71
2021/04/16 06:03:09;;;;;;;6.22;5.18;;;3.10;63.80;;;;;;5053754;28;20029;-69
2021/04/16 06:05:34;;;;;;;11.02;5.45;;;3.20;63.90;;;;;;5039817;28;20108;-70
2021/04/16 06:08:00;;;;;;;7.78;5.10;;;3.20;63.90;;;;;;5050692;28;20108;-69
2021/04/16 06:10:26;;;;;;;6.75;5.03;;;3.30;63.90;;;;;;5053668;28;20035;-69
2021/04/16 06:12:52;;;;;;;8.73;4.90;;;3.30;64.10;;;;;;5052663;28;20021;-68
2021/04/16 06:15:21;;;;;;;7.25;5.22;;;3.30;64.10;;;;;;5044339;28;20037;-71
2021/04/16 06:17:47;;;;;;;7.53;5.30;;;3.30;64.30;;;;;;5050535;28;20016;-69
2021/04/16 06:20:15;;;;;;;8.20;5.35;;;3.30;64.20;;;;;;5053477;28;20477;-69
2021/04/16 06:22:41;;;;;;;7.57;5.20;;;3.30;64.10;;;;;;5040909;28;20032;-69
2021/04/16 06:25:08;;;;;;;6.78;5.13;;;3.40;64.20;;;;;;5052312;28;20021;-71
2021/04/16 06:27:35;;;;;;;7.55;5.60;;;3.40;64.40;;;;;;5053284;28;20393;-71
2021/04/16 06:30:00;;;;;;;8.63;6.43;;;3.40;64.40;;;;;;5052659;28;20036;-71
2021/04/16 06:32:26;;;;;;;7.90;5.70;;;3.50;64.60;;;;;;5052281;28;20025;-69
2021/04/16 06:34:52;;;;;;;11.10;6.32;;;3.50;64.60;;;;;;5052138;28;20029;-70
2021/04/16 06:37:18;;;;;;;7.53;5.88;;;3.60;64.70;;;;;;5052717;28;20029;-70
2021/04/16 06:39:44;;;;;;;10.63;6.38;;;3.60;64.70;;;;;;5052659;28;20170;-70
2021/04/16 06:42:24;;;;;;;10.02;6.05;;;3.60;64.80;;;;;;5052706;28;20029;-69
2021/04/16 06:44:57;;;;;;;6.88;5.75;;;3.70;65.10;;;;;;5051793;28;20029;-70
2021/04/16 06:47:34;;;;;;;9.63;6.03;;;3.70;64.90;;;;;;5052692;28;20029;-71
2021/04/16 06:50:02;;;;;;;8.73;5.55;;;3.80;65.00;;;;;;5052460;28;20078;-69
2021/04/16 06:52:55;;;;;;;9.85;5.22;;;3.80;64.90;;;;;;5050969;28;20021;-69
2021/04/16 06:55:35;;;;;;;5.60;5.00;;;3.90;65.20;;;;;;5043141;28;20029;-70
2021/04/16 06:58:06;;;;;;;9.20;5.95;;;3.90;65.20;;;;;;5047794;28;20033;-71
2021/04/16 07:00:45;;;;;;;7.20;5.38;;;3.90;65.30;;;;;;5062270;28;20079;-70
2021/04/16 07:03:25;;;;;;;9.32;4.90;;;4.00;65.40;;;;;;5042412;28;20554;-70
2021/04/16 07:05:56;;;;;;;6.28;5.35;;;4.00;65.40;;;;;;5047180;28;20082;-71
2021/04/16 07:08:34;;;;;;;8.38;5.10;;;4.10;65.50;;;;;;5041100;28;20017;-71
2021/04/16 07:11:00;;;;;;;4.90;4.40;;;4.10;65.50;;;;;;5050505;28;20025;-70
2021/04/16 07:13:37;;;;;;;9.30;5.05;;;4.10;65.30;;;;;;5049011;28;20025;-71
2021/04/16 07:16:04;;;;;;;9.98;5.35;;;4.20;65.40;;;;;;5051412;28;20054;-70
2021/04/16 07:18:37;;;;;;;9.65;5.22;;;4.20;65.50;;;;;;5046616;28;20425;-70
2021/04/16 07:21:03;;;;;;;6.45;4.68;;;4.20;65.60;;;;;;5045843;28;20426;-71
2021/04/16 07:23:45;;;;;;;5.20;4.35;;;4.30;65.20;;;;;;5040178;28;20025;-70
2021/04/16 07:26:37;;;;;;;6.20;5.00;;;4.30;65.20;;;;;;5047215;28;20057;-71
2021/04/16 07:29:04;;;;;;;6.63;4.67;;;4.30;65.40;;;;;;5047459;28;20120;-71
2021/04/16 07:31:36;;;;;;;6.18;4.43;;;4.30;65.20;;;;;;5052023;28;20949;-71
2021/04/16 07:34:02;;;;;;;4.90;4.38;;;4.40;65.40;;;;;;5051514;28;20032;-71
2021/04/16 07:36:34;;;;;;;9.02;4.97;;;4.50;65.20;;;;;;5051736;28;20400;-71
2021/04/16 07:39:17;;;;;;;5.07;4.23;;;4.60;65.30;;;;;;5051965;28;20103;-71
2021/04/16 07:41:44;;;;;;;4.97;4.43;;;4.60;64.90;;;;;;5051605;28;20052;-71
2021/04/16 07:44:39;;;;;;;4.93;4.43;;;4.60;65.00;;;;;;5051132;28;20112;-70
2021/04/16 07:47:22;;;;;;;7.45;4.18;;;4.70;65.20;;;;;;5050013;28;20037;-71
2021/04/16 07:49:55;;;;;;;;;;;4.70;65.20;;;;;;5051853;28;20431;-71
2021/04/16 07:52:42;;;;;;;5.60;3.83;;;4.80;64.60;;;;;;5059350;28;19913;-69
2021/04/16 07:55:14;;;;;;;7.35;4.20;;;4.80;64.80;;;;;;5048444;28;20032;-69
2021/04/16 07:57:58;;;;;;;6.73;3.93;;;4.80;64.90;;;;;;5051095;28;20548;-69
2021/04/16 08:00:32;;;;;;;4.90;3.97;;;4.80;64.90;;;;;;5049915;28;20068;-69
2021/04/16 08:03:18;;;;;;;8.38;5.93;;;4.80;64.70;;;;;;5043137;28;20037;-69
2021/04/16 08:05:53;;;;;;;5.10;4.28;;;4.80;64.90;;;;;;5048975;28;20052;-69
2021/04/16 08:08:21;;;;;;;5.93;4.20;;;4.90;65.00;;;;;;5051096;28;20061;-69
2021/04/16 08:11:05;;;;;;;6.60;4.55;;;4.90;64.90;;;;;;5047929;28;20025;-69
2021/04/16 08:13:42;;;;;;;4.70;3.78;;;4.90;64.90;;;;;;5046404;28;20013;-69
2021/04/16 08:16:12;;;;;;;4.20;3.65;;;4.90;64.80;;;;;;5039410;28;20044;-69
2021/04/16 08:18:41;;;;;;;6.15;4.10;;;4.90;64.70;;;;;;5033192;28;20371;-69
2021/04/16 08:21:17;;;;;;;4.38;3.75;;;4.90;64.80;;;;;;5038383;28;20024;-70
2021/04/16 08:24:15;;;;;;;4.22;3.38;;;4.90;64.80;;;;;;5045009;28;20033;-70
2021/04/16 08:26:43;;;;;;;3.55;3.20;;;5.00;64.70;;;;;;5060443;28;20056;-70
2021/04/16 08:29:50;;;;;;;4.88;3.60;;;5.10;64.40;;;;;;5049443;28;20051;-69
2021/04/16 08:32:28;;;;;;;3.83;3.30;;;5.10;64.60;;;;;;5039961;28;20033;-69
2021/04/16 08:35:22;;;;;;;4.68;3.33;;;5.00;64.40;;;;;;5049044;28;20401;-69
2021/04/16 08:38:01;;;;;;;4.80;3.17;;;5.00;64.40;;;;;;5049817;28;20037;-69
2021/04/16 08:40:34;;;;;;;3.63;3.20;;;5.00;64.40;;;;;;5049945;28;20033;-69
2021/04/16 08:43:01;;;;;;;4.22;3.28;;;5.20;64.10;;;;;;5049611;28;20021;-68
2021/04/16 08:45:31;;;;;;;2.88;2.45;;;5.50;64.20;;;;;;5063277;28;20024;-69
2021/04/16 08:48:09;;;;;;;2.50;2.30;;;5.70;63.80;;;;;;5049367;28;20021;-69
2021/04/16 08:50:39;;;;;;;2.70;2.50;;;5.90;63.30;;;;;;5050072;28;20025;-69
2021/04/16 08:53:05;;;;;;;3.55;2.40;;;6.10;63.00;;;;;;5041238;28;20025;-69
2021/04/16 08:55:37;;;;;;;2.67;2.47;;;6.10;62.60;;;;;;5051037;28;20048;-68
2021/04/16 08:58:08;;;;;;;3.08;2.47;;;6.10;62.80;;;;;;5033757;28;20451;-68
2021/04/16 09:00:45;;;;;;;2.70;2.50;;;6.20;62.80;;;;;;5047866;28;20025;-68
2021/04/16 09:03:20;;;;;;;2.60;2.40;;;6.30;62.80;;;;;;5051023;28;20061;-69
2021/04/16 09:06:03;;;;;;;2.50;2.28;;;6.40;62.60;;;;;;5040353;28;20028;-68
2021/04/16 09:08:45;;;;;;;2.60;2.40;;;6.50;62.30;;;;;;5049673;28;20049;-68
2021/04/16 09:11:13;;;;;;;3.60;2.10;;;7.00;61.70;;;;;;5049188;28;20028;-69
2021/04/16 09:13:38;;;;;;;3.10;2.33;;;6.90;61.10;;;;;;5048968;28;20017;-68
2021/04/16 09:16:23;;;;;;;2.65;2.40;;;6.80;61.50;;;;;;5048364;28;20135;-68
2021/04/16 09:18:53;;;;;;;3.90;2.63;;;6.70;61.70;;;;;;5049769;28;20032;-69
2021/04/16 09:21:37;;;;;;;4.65;2.55;;;6.60;61.70;;;;;;5048674;28;20033;-68
2021/04/16 09:24:13;;;;;;;3.97;2.78;;;6.60;61.80;;;;;;5044727;28;20119;-68
2021/04/16 09:26:48;;;;;;;3.28;2.50;;;6.50;61.70;;;;;;5049449;28;20029;-69
2021/04/16 09:29:39;;;;;;;2.55;2.35;;;6.40;61.80;;;;;;5047338;28;20025;-68
2021/04/16 09:32:38;;;;;;;2.75;2.53;;;6.30;61.80;;;;;;5046953;28;20032;-69
2021/04/16 09:35:19;;;;;;;3.47;2.65;;;6.30;62.00;;;;;;5048435;28;20036;-69
2021/04/16 09:37:45;;;;;;;4.80;2.40;;;6.30;61.90;;;;;;5047930;28;20036;-69
2021/04/16 09:40:21;;;;;;;3.40;2.40;;;6.40;61.80;;;;;;5040140;28;20396;-69
2021/04/16 09:43:05;;;;;;;3.40;2.40;;;6.30;61.60;;;;;;5034507;28;20474;-69
2021/04/16 09:45:31;;;;;;;3.45;2.40;;;6.30;61.40;;;;;;5033319;28;20349;-69
2021/04/16 09:48:06;;;;;;;3.50;2.38;;;6.20;61.50;;;;;;5049360;28;20036;-69
2021/04/16 09:50:33;;;;;;;2.53;2.33;;;6.20;61.70;;;;;;5044428;28;20064;-69
2021/04/16 09:53:19;;;;;;;3.38;2.33;;;6.20;61.50;;;;;;5049024;28;20078;-69
2021/04/16 09:55:58;;;;;;;2.13;2.03;;;6.10;61.50;;;;;;5029315;28;20029;-69
2021/04/16 09:58:33;;;;;;;2.38;2.13;;;6.20;61.60;;;;;;5040851;28;20032;-70
2021/04/16 10:01:01;;;;;;;2.78;2.42;;;6.20;61.50;;;;;;5049453;28;20489;-69
2021/04/16 10:03:51;;;;;;;3.35;2.38;;;6.30;61.30;;;;;;5049904;28;20149;-69
2021/04/16 10:06:21;;;;;;;3.63;2.17;;;6.40;61.30;;;;;;5032023;28;20161;-68
2021/04/16 10:08:59;;;;;;;2.47;2.20;;;6.40;61.10;;;;;;5044347;28;20033;-68
2021/04/16 10:11:24;;;;;;;3.13;2.38;;;6.40;61.20;;;;;;5047675;28;20032;-68
2021/04/16 10:13:50;;;;;;;2.40;2.13;;;6.40;61.10;;;;;;5047708;28;20037;-67
2021/04/16 10:16:25;;;;;;;2.15;1.92;;;6.40;61.10;;;;;;5048693;28;20025;-68
2021/04/16 10:18:51;;;;;;;2.67;2.20;;;6.50;60.90;;;;;;5034259;28;20033;-68
2021/04/16 10:21:17;;;;;;;1.80;1.70;;;6.50;61.00;;;;;;5047136;28;20377;-68
2021/04/16 10:24:26;;;;;;;2.70;1.75;;;6.50;60.80;;;;;;5040336;28;20029;-68
2021/04/16 12:39:55;;;;;;;3.47;2.03;;;8.20;56.90;;;;;;5040393;28;20561;-69
2021/04/16 12:42:21;;;;;;;1.65;1.42;;;8.20;57.10;;;;;;5048512;28;20119;-68
2021/04/16 12:44:49;;;;;;;2.33;2.10;;;8.20;57.00;;;;;;5049077;28;20402;-69
2021/04/16 12:47:24;;;;;;;2.00;1.80;;;8.10;57.00;;;;;;5046200;28;20032;-69
2021/04/16 12:49:49;;;;;;;2.15;2.00;;;8.10;57.00;;;;;;5048158;28;20074;-69
2021/04/16 12:52:17;;;;;;;2.03;1.83;;;8.00;57.00;;;;;;5048094;28;20028;-70
2021/04/16 12:54:48;;;;;;;2.30;2.10;;;8.00;57.00;;;;;;5048848;28;20117;-70
2021/04/16 12:57:55;;;;;;;2.88;1.90;;;7.90;57.00;;;;;;5033130;28;20049;-69
2021/04/16 13:00:33;;;;;;;2.65;1.80;;;7.70;57.00;;;;;;4985402;28;20025;-70
2021/04/16 13:03:11;;;;;;;1.75;1.65;;;7.70;57.00;;;;;;5052916;28;20439;-69
2021/04/16 13:05:38;;;;;;;1.95;1.85;;;7.60;57.20;;;;;;5043015;28;20033;-69
2021/04/16 13:08:05;;;;;;;2.53;2.33;;;7.60;57.30;;;;;;5048124;28;20086;-71
2021/04/16 13:10:34;;;;;;;2.00;1.80;;;7.50;57.20;;;;;;5064270;28;20024;-69
2021/04/16 13:12:59;;;;;;;2.13;1.92;;;7.50;57.40;;;;;;5049143;28;20108;-72
2021/04/16 13:15:25;;;;;;;2.13;2.00;;;7.50;57.40;;;;;;5048848;28;20108;-72
2021/04/16 13:17:54;;;;;;;1.98;1.88;;;7.50;57.40;;;;;;5048627;28;20500;-72
2021/04/16 13:20:21;;;;;;;1.90;1.80;;;7.50;57.30;;;;;;5048773;28;20127;-72
2021/04/16 13:22:48;;;;;;;2.17;1.98;;;7.50;57.40;;;;;;5049899;28;20068;-72
2021/04/16 13:25:16;;;;;;;2.42;2.22;;;7.50;57.60;;;;;;5048924;28;20036;-72
2021/04/16 13:27:42;;;;;;;2.22;2.00;;;7.50;57.50;;;;;;5049693;28;20028;-72
2021/04/16 13:30:10;;;;;;;2.58;2.15;;;7.40;57.50;;;;;;5048971;28;20021;-71
2021/04/16 13:32:42;;;;;;;2.30;2.10;;;7.40;57.50;;;;;;5049273;28;20055;-71
2021/04/16 13:35:10;;;;;;;2.45;2.25;;;7.30;57.50;;;;;;5048623;28;20474;-72
2021/04/16 13:37:37;;;;;;;2.85;2.17;;;7.20;57.50;;;;;;5047911;28;20394;-71
2021/04/16 13:40:04;;;;;;;2.47;2.28;;;7.20;57.70;;;;;;5049497;28;20080;-72
2021/04/16 13:42:29;;;;;;;2.20;2.10;;;7.20;57.90;;;;;;5039105;28;20030;-70
2021/04/16 13:44:55;;;;;;;2.75;2.20;;;7.30;57.80;;;;;;5038233;28;20049;-69
2021/04/16 13:47:25;;;;;;;2.53;2.33;;;7.30;57.70;;;;;;5039031;28;20055;-69
2021/04/16 13:49:51;;;;;;;2.70;2.50;;;7.30;57.80;;;;;;5045888;28;20511;-69
2021/04/16 13:52:18;;;;;;;2.10;1.90;;;7.30;57.90;;;;;;5043275;28;20048;-69
2021/04/16 13:54:47;;;;;;;2.72;1.95;;;7.30;57.90;;;;;;5037829;28;20029;-69
2021/04/16 13:57:18;;;;;;;2.50;2.30;;;7.40;57.80;;;;;;5036679;28;20462;-68
2021/04/16 13:59:45;;;;;;;2.42;2.22;;;7.40;58.00;;;;;;5037633;28;20035;-68
2021/04/16 14:02:15;;;;;;;5.15;2.30;;;7.40;58.00;;;;;;5044975;28;20091;-68
2021/04/16 14:04:43;;;;;;;2.42;2.22;;;7.50;58.00;;;;;;5044684;28;20029;-69
2021/04/16 14:07:09;;;;;;;2.22;2.03;;;7.50;57.80;;;;;;5049402;28;20025;-68
2021/04/16 14:09:36;;;;;;;2.30;2.10;;;7.60;57.80;;;;;;5051516;28;20075;-68
2021/04/16 14:12:04;;;;;;;5.63;2.15;;;7.50;57.70;;;;;;5049490;28;20121;-68
2021/04/16 14:14:33;;;;;;;2.33;2.13;;;7.50;57.60;;;;;;5049421;28;20033;-68
2021/04/16 14:17:00;;;;;;;2.35;2.15;;;7.50;58.20;;;;;;5049724;28;20041;-68
2021/04/16 14:19:37;;;;;;;1.90;1.80;;;7.40;57.90;;;;;;5037694;28;20030;-68
2021/04/16 14:22:03;;;;;;;2.75;2.53;;;7.40;58.10;;;;;;5030906;28;20080;-68
2021/04/16 14:24:29;;;;;;;2.42;2.22;;;7.30;58.70;;;;;;5050372;28;20111;-68
2021/04/16 14:26:56;;;;;;;2.83;2.42;;;7.30;58.30;;;;;;5049736;28;20605;-68
2021/04/16 14:29:22;;;;;;;2.45;2.25;;;7.30;58.40;;;;;;5049558;28;20025;-68
2021/04/16 14:31:48;;;;;;;2.55;1.92;;;7.30;58.40;;;;;;5049601;28;20338;-68
2021/04/16 14:34:18;;;;;;;3.92;2.15;;;7.20;58.50;;;;;;5049502;28;20035;-68
2021/04/16 14:36:44;;;;;;;2.17;2.00;;;7.20;58.70;;;;;;5049245;28;20032;-68
2021/04/16 14:39:12;;;;;;;3.28;2.13;;;7.20;58.70;;;;;;5050149;28;20461;-68
2021/04/16 14:41:41;;;;;;;2.42;2.20;;;7.20;58.80;;;;;;5048781;28;20865;-68
2021/04/16 14:44:14;;;;;;;2.28;2.00;;;7.20;58.90;;;;;;5048548;28;20816;-68
2021/04/16 14:46:45;;;;;;;2.10;2.00;;;7.10;58.90;;;;;;5048904;28;20033;-68
2021/04/16 14:49:12;;;;;;;2.17;1.98;;;7.10;58.90;;;;;;5043551;28;20033;-68
2021/04/16 14:51:38;;;;;;;2.53;1.92;;;7.00;58.90;;;;;;5048765;28;20504;-68
2021/04/16 14:54:25;;;;;;;2.13;1.80;;;7.00;59.10;;;;;;5048511;28;20051;-68
2021/04/16 14:56:54;;;;;;;2.85;2.00;;;7.00;59.10;;;;;;5037345;28;20467;-68
2021/04/16 14:59:35;;;;;;;1.95;1.85;;;6.90;59.10;;;;;;5038397;28;20639;-68
2021/04/16 15:02:01;;;;;;;2.10;1.80;;;6.90;59.20;;;;;;5046567;28;20036;-68
2021/04/16 15:04:26;;;;;;;2.63;2.00;;;6.80;59.20;;;;;;5046135;28;20039;-70
2021/04/16 15:06:56;;;;;;;1.90;1.80;;;6.80;59.40;;;;;;5047581;28;20036;-68
2021/04/16 15:09:45;;;;;;;8.30;2.28;;;6.80;59.50;;;;;;5047424;28;20153;-70
2021/04/16 15:12:18;;;;;;;2.13;2.00;;;6.70;59.50;;;;;;5048604;28;20025;-69
2021/04/16 15:14:44;;;;;;;3.13;1.90;;;6.70;59.60;;;;;;5046812;28;20413;-69
2021/04/16 15:17:10;;;;;;;2.22;1.95;;;6.70;59.70;;;;;;5048709;28;20128;-69
2021/04/16 15:19:39;;;;;;;2.45;2.13;;;6.60;59.80;;;;;;5047880;28;20473;-69
2021/04/16 15:22:16;;;;;;;2.80;2.00;;;6.70;60.00;;;;;;5048256;28;20186;-69
2021/04/16 15:24:43;;;;;;;2.03;1.83;;;6.70;60.00;;;;;;5039522;28;20024;-68
2021/04/16 15:27:16;;;;;;;2.65;2.10;;;6.70;59.80;;;;;;5043541;28;20024;-68